Nearby METAR Reports

 

KADS - Dallas/Addison, Texas, USA
Distance from station: SSW 10mi, 16km
Updated: Tue, 25-Apr-2017 1:35am CDT
Clear
Clear
 Wind from S
Wind: S 15 mph , 24 km/h, Gust: 21 mph , 33 km/h
Temperature: 66°F , 19°C
Dew Point: 50°F , 10°C
Humidity: 56%
Barometer: 29.62 inHg , 1003 hPa
Clouds: Clear
Visibility: 10 miles , 16 km
2017/04/25 06:35 KADS 250635Z AUTO 17013G18KT 10SM CLR 19/10 A2962 RMK AO2 T01900102
KTKI - Mckinney, Texas, USA
Distance from station: ENE 11mi, 18km
Updated: Tue, 25-Apr-2017 12:53am CDT
Clear
Clear
 Wind from S
Wind: S 16 mph , 26 km/h
Temperature: 64°F , 18°C
Dew Point: 52°F , 11°C
Humidity: 64%
Barometer: 29.62 inHg , 1003 hPa
Clouds: Clear
Visibility: 10 miles , 16 km
2017/04/25 05:53 KTKI 250553Z AUTO 17014KT 10SM CLR 18/11 A2962 RMK AO2 SLP031 T01780111 10228 20161 402440061 58017
 
KDAL - Dallas/Love Fld, Texas, USA
Distance from station: SSW 18mi, 30km
Updated: Tue, 25-Apr-2017 12:53am CDT
Partly cloudy
Partly cloudy
 Wind from S
Wind: S 15 mph , 24 km/h
Temperature: 66°F , 19°C
Dew Point: 52°F , 11°C
Humidity: 60%
Barometer: 29.63 inHg , 1003.4 hPa
Clouds: Partly cloudy
Visibility: 10 miles , 16 km
Cloud details: Partly cloudy 25000 ft
2017/04/25 05:53 KDAL 250553Z 17013KT 10SM SCT250 19/11 A2963 RMK AO2 SLP027 T01940106 10244 20194 402560111 58013
KDFW - Dallas/Ft Worth, Texas, USA
Distance from station: SW 21mi, 34km
Updated: Tue, 25-Apr-2017 12:53am CDT
Partly cloudy
Partly cloudy
 Wind from S
Wind: S 18 mph , 30 km/h
Temperature: 70°F , 21°C
Dew Point: 52°F , 11°C
Humidity: 53%
Barometer: 29.59 inHg , 1002 hPa
Clouds: Partly cloudy
Visibility: 10 miles , 16 km
Cloud details: Partly cloudy 30000 ft
2017/04/25 05:53 KDFW 250553Z 17016KT 10SM SCT300 21/11 A2959 RMK AO2 SLP014 T02060111 10244 20200 402560094 58017
 
KF46 - Rockwall, Texas, USA
Distance from station: ESE 22mi, 35km
Updated: Tue, 25-Apr-2017 1:35am CDT
Clear
Clear
 Wind from S
Wind: S 14 mph , 22 km/h, Gust: 18 mph , 30 km/h
Temperature: 64°F , 18°C
Dew Point: 50°F , 10°C
Humidity: 60%
Barometer: 29.63 inHg , 1003.4 hPa
Clouds: Clear
Visibility: 10 miles , 16 km
2017/04/25 06:35 KF46 250635Z AUTO 17012G16KT 10SM CLR 18/10 A2963 RMK AO2 T01760103
KDTO - Denton, Texas, USA
Distance from station: WNW 27mi, 43km
Updated: Tue, 25-Apr-2017 12:53am CDT
Clear
Clear
 Wind from SSE
Wind: SSE 18 mph , 30 km/h, Gust: 24 mph , 39 km/h
Temperature: 66°F , 19°C
Dew Point: 52°F , 11°C
Humidity: 60%
Barometer: 29.59 inHg , 1002 hPa
Clouds: Clear
Visibility: 10 miles , 16 km
2017/04/25 05:53 KDTO 250553Z AUTO 16016G21KT 10SM CLR 19/11 A2959 RMK AO2 SLP011 T01940111 10233 20183 402500061 58018
 
KHQZ - Mesquite, Texas, USA
Distance from station: SSE 28mi, 44km
Updated: Tue, 25-Apr-2017 1:35am CDT
Clear
Clear
 Wind from S
Wind: S 13 mph , 20 km/h, Gust: 16 mph , 26 km/h
Temperature: 63°F , 17°C
Dew Point: 50°F , 10°C
Humidity: 64%
Barometer: 29.65 inHg , 1004.1 hPa
Clouds: Clear
Visibility: 10 miles , 16 km
2017/04/25 06:35 KHQZ 250635Z AUTO 17011G14KT 10SM CLR 17/10 A2965 RMK AO1 T01670099
KRBD - Dallas/Redbird, Texas, USA
Distance from station: SSW 30mi, 48km
Updated: Tue, 25-Apr-2017 12:53am CDT
Clear
Clear
 Wind from S
Wind: S 9 mph , 15 km/h
Temperature: 64°F , 18°C
Dew Point: 52°F , 11°C
Humidity: 64%
Barometer: 29.63 inHg , 1003.4 hPa
Clouds: Clear
Visibility: 10 miles , 16 km
2017/04/25 05:53 KRBD 250553Z AUTO 17008KT 10SM CLR 18/11 A2963 RMK AO2 SLP026 T01780111 10233 20178 402440094 58013
 
KGPM - Grand Prairie, Texas, USA
Distance from station: SSW 33mi, 53km
Updated: Tue, 25-Apr-2017 1:35am CDT
Clear
Clear
 Wind from SSE
Wind: SSE 12 mph , 19 km/h, Gust: 18 mph , 30 km/h
Temperature: 66°F , 19°C
Dew Point: 52°F , 11°C
Humidity: 60%
Barometer: 29.62 inHg , 1003 hPa
Clouds: Clear
Visibility: 10 miles , 16 km
2017/04/25 06:35 KGPM 250635Z AUTO 16010G16KT 10SM CLR 19/11 A2962 RMK AO2 T01900105
KAFW - Ft Worth/Allianc, Texas, USA
Distance from station: WSW 34mi, 55km
Updated: Tue, 25-Apr-2017 12:53am CDT
Few Clouds
Few Clouds
 Wind from S
Wind: S 13 mph , 20 km/h
Temperature: 66°F , 19°C
Dew Point: 52°F , 11°C
Humidity: 60%
Barometer: 29.58 inHg , 1001.7 hPa
Clouds: Few Clouds
Visibility: 10 miles , 16 km
Cloud details: Few Clouds 30000 ft
2017/04/25 05:53 KAFW 250553Z 17011KT 10SM FEW300 19/11 A2958 RMK AO2 SLP008 T01890111 10239 20183 402610078 58018
 
KLNC - Lancaster, Texas, USA
Distance from station: S 36mi, 58km
Updated: Tue, 25-Apr-2017 1:35am CDT
Clear
Clear
 Wind from S
Wind: S 8 mph , 13 km/h
Temperature: 63°F , 17°C
Dew Point: 52°F , 11°C
Humidity: 68%
Barometer: 29.65 inHg , 1004.1 hPa
Clouds: Clear
Visibility: 10 miles , 16 km
2017/04/25 06:35 KLNC 250635Z AUTO 17007KT 10SM CLR 17/11 A2965 RMK AO2 T01650106
KGKY - Arlington, Texas, USA
Distance from station: SSW 36mi, 59km
Updated: Tue, 25-Apr-2017 12:53am CDT
Clear
Clear
 Wind from SSE
Wind: SSE 12 mph , 19 km/h
Temperature: 64°F , 18°C
Dew Point: 52°F , 11°C
Humidity: 64%
Barometer: 29.63 inHg , 1003.4 hPa
Clouds: Clear
Visibility: 10 miles , 16 km
2017/04/25 05:53 KGKY 250553Z AUTO 16010KT 10SM CLR 18/11 A2963 RMK AO2 SLP025 T01780111 10233 20178 402500056 58013 $
 
KTRL - Terrell, Texas, USA
Distance from station: SE 39mi, 63km
Updated: Tue, 25-Apr-2017 12:53am CDT
Clear
Clear
 Wind from S
Wind: S 9 mph , 15 km/h
Temperature: 63°F , 17°C
Dew Point: 50°F , 10°C
Humidity: 64%
Barometer: 29.66 inHg , 1004.4 hPa
Clouds: Clear
Visibility: 10 miles , 16 km
2017/04/25 05:53 KTRL 250553Z AUTO 17008KT 10SM CLR 17/10 A2966 RMK AO2 SLP038 T01720100 10233 20161 402500061 58009
KGVT - Greenville/Major, Texas, USA
Distance from station: E 40mi, 64km
Updated: Tue, 25-Apr-2017 1:35am CDT
Clear
Clear
 Wind from SSE
Wind: SSE 10 mph , 17 km/h
Temperature: 64°F , 18°C
Dew Point: 52°F , 11°C
Humidity: 64%
Barometer: 29.65 inHg , 1004.1 hPa
Clouds: Clear
Visibility: 10 miles , 16 km
2017/04/25 06:35 KGVT 250635Z AUTO 16009KT 10SM CLR 18/11 A2965 RMK AO2
 
KFTW - Fort Worth, Texas, USA
Distance from station: WSW 40mi, 65km
Updated: Tue, 25-Apr-2017 12:53am CDT
Clear
Clear
 Wind from S
Wind: S 17 mph , 28 km/h, Gust: 25 mph , 41 km/h
Temperature: 70°F , 21°C
Dew Point: 52°F , 11°C
Humidity: 53%
Barometer: 29.60 inHg , 1002.4 hPa
Clouds: Clear
Visibility: 10 miles , 16 km
2017/04/25 05:53 KFTW 250553Z 17015G22KT 10SM CLR 21/11 A2960 RMK AO2 SLP014 T02060111 10244 20194 402610100 58015
KGYI - Sherman/Denison, Texas, USA
Distance from station: N 43mi, 69km
Updated: Tue, 25-Apr-2017 1:35am CDT
Clear
Clear
 Wind from SSE
Wind: SSE 13 mph , 20 km/h
Temperature: 63°F , 17°C
Dew Point: 52°F , 11°C
Humidity: 68%
Barometer: 29.60 inHg , 1002.4 hPa
Clouds: Clear
Visibility: 10 miles , 16 km
2017/04/25 06:35 KGYI 250635Z AUTO 16011KT 10SM CLR 17/11 A2960 RMK AO2 T01740105
 
KNFW - Fort Worth Nas, Texas, USA
Distance from station: WSW 45mi, 73km
Updated: Tue, 25-Apr-2017 12:52am CDT
Clear
Clear
 Wind from S
Wind: S 15 mph , 24 km/h
Temperature: 70°F , 21°C
Dew Point: 52°F , 11°C
Humidity: 53%
Barometer: 29.61 inHg , 1002.7 hPa
Clouds: Clear
Visibility: 10 miles , 16 km
2017/04/25 05:52 KNFW 250552Z AUTO 17013KT 10SM CLR 21/11 A2961 RMK AO2 SLP011 T02060111 10244 20206 402610094 58015 $
KGLE - Gainesville, Texas, USA
Distance from station: NW 46mi, 74km
Updated: Tue, 25-Apr-2017 1:35am CDT
Clear
Clear
 Wind from S
Wind: S 12 mph , 19 km/h
Temperature: 63°F , 17°C
Dew Point: 52°F , 11°C
Humidity: 68%
Barometer: 29.59 inHg , 1002 hPa
Clouds: Clear
Visibility: 10 miles , 16 km
2017/04/25 06:35 KGLE 250635Z AUTO 18010KT 10SM CLR 17/11 A2959 RMK AO2 T01700105
 
KJWY - Midlothian/Wax, Texas, USA
Distance from station: SSW 46mi, 74km
Updated: Tue, 25-Apr-2017 1:35am CDT
Clear
Clear
 Wind from SSE
Wind: SSE 8 mph , 13 km/h
Temperature: 63°F , 17°C
Dew Point: 54°F , 12°C
Humidity: 73%
Barometer: 29.65 inHg , 1004.1 hPa
Clouds: Clear
Visibility: 10 miles , 16 km
2017/04/25 06:35 KJWY 250635Z AUTO 16007KT 10SM CLR 17/12 A2965 RMK AO2 T01650115
KFWS - Fort Worth/88d, Texas, USA
Distance from station: SW 49mi, 79km
Updated: Tue, 25-Apr-2017 1:35am CDT
Clear
Clear
 Wind from S
Wind: S 13 mph , 20 km/h, Gust: 22 mph , 35 km/h
Temperature: 66°F , 19°C
Dew Point: 52°F , 11°C
Humidity: 60%
Barometer: 29.62 inHg , 1003 hPa
Clouds: Clear
Visibility: 10 miles , 16 km
2017/04/25 06:35 KFWS 250635Z AUTO 17011G19KT 10SM CLR 19/11 A2962 RMK AO2 T01900106